Search for airport 
image banner adimage banner adimage banner ad
image banner ad

8C4 - Mathews Memorial

Located in Tipton, United States

ICAO - 8C4, IATA -

Data provided by Airmate  

General information

Coordinates: N41°45'48" W91°9'11"
Elevation is 840 feet MSL.
Magnetic variation is 02° East
View others Airports in Iowa

Operational data

Special qualification required
Current time UTC:
Current local time:
Weather at : KIOW - Iowa City Muni ( 36 km )
METAR: KIOW 181752Z AUTO 03006KT 10SM CLR 31/19 A2983 RMK AO2 SLP095 T03060189 10306 20250 56003
View NOTAMs / SUP AIP / TFR affecting this airport [VIEW]
Communications frequencies: [VIEW]

Runways:

RWY identifierQFULength (ft)Width (ft)SurfaceLDA (ft)
11110°300060CONC
29290°300060CONC

Airport contact information

Address: Tipton United States

Satellite view of 8C4